Terminal Aerodrome Forecast
Issued by NWS

Home | Current Version | Previous Version | Text Only | Print | Product List | Glossary On
Versions: 1 2 3 4 5 6 7 8 9 10 11 12 13 14 15 16 17
000
FTUS45 KFGZ 261120
TAFPGA
TAF
KPGA 261120Z 2612/2712 VRB04KT P6SM SCT080 SCT180
     FM262100 34007KT P6SM VCSH SCT080 BKN110
     FM270200 VRB05KT P6SM SCT120=

USA.gov is the U.S. government's official web portal to all federal, state and local government web resources and services.